Time;durP1;ratioP1;P1;durP2;ratioP2;P2;SDS_P1;SDS_P2;PMS_P1;PMS_P2;Temp;Humidity;BMP_temperature;BMP_pressure;BME280_temperature;BME280_humidity;BME280_pressure;Samples;Min_cycle;Max_cycle;Signal;HPM_P1;HPM_P2
2023/01/23 00:00:09;;;;;;;16.23;10.67;;;2.30;99.90;;;;;;5112477;28;20227;-68
2023/01/23 00:02:35;;;;;;;14.67;11.70;;;2.40;99.90;;;;;;5112239;28;20164;-67
2023/01/23 00:05:01;;;;;;;14.63;10.77;;;2.30;99.90;;;;;;5114091;28;20172;-70
2023/01/23 00:07:28;;;;;;;15.10;11.50;;;2.30;99.90;;;;;;5116499;28;20204;-69
2023/01/23 00:09:54;;;;;;;16.37;11.70;;;2.30;99.90;;;;;;5116460;28;20187;-67
2023/01/23 00:12:20;;;;;;;15.63;11.67;;;2.30;99.90;;;;;;5116338;28;20189;-71
2023/01/23 00:14:45;;;;;;;14.30;10.57;;;2.30;99.90;;;;;;5116318;28;20643;-72
2023/01/23 00:17:11;;;;;;;16.93;10.77;;;2.30;99.90;;;;;;5116345;28;20185;-66
2023/01/23 00:19:37;;;;;;;17.23;11.27;;;2.30;99.90;;;;;;5118779;28;20174;-67
2023/01/23 00:22:02;;;;;;;14.10;11.07;;;2.30;99.90;;;;;;5119164;28;20683;-67
2023/01/23 00:24:28;;;;;;;15.17;11.20;;;2.30;99.90;;;;;;5116951;28;20212;-66
2023/01/23 00:26:54;;;;;;;14.53;10.73;;;2.30;99.90;;;;;;5116257;28;20174;-65
2023/01/23 00:29:20;;;;;;;12.97;10.20;;;2.30;99.90;;;;;;5116232;28;20234;-65
2023/01/23 00:31:46;;;;;;;14.93;10.80;;;2.30;99.90;;;;;;5097862;28;20646;-67
2023/01/23 00:34:13;;;;;;;14.10;10.50;;;2.20;99.90;;;;;;5115879;28;20169;-64
2023/01/23 00:36:42;;;;;;;15.57;10.73;;;2.20;99.90;;;;;;5116562;28;20554;-65
2023/01/23 00:39:14;;;;;;;13.90;10.20;;;2.20;99.90;;;;;;5120227;28;20180;-66
2023/01/23 00:41:40;;;;;;;13.60;9.77;;;2.20;99.90;;;;;;5116706;28;20161;-66
2023/01/23 00:44:05;;;;;;;16.13;11.20;;;2.20;99.90;;;;;;5115546;28;20580;-65
2023/01/23 00:46:31;;;;;;;14.17;9.77;;;2.10;99.90;;;;;;5115977;28;20204;-65
2023/01/23 00:48:57;;;;;;;13.73;10.47;;;2.10;99.90;;;;;;5116014;28;20206;-68
2023/01/23 00:51:23;;;;;;;12.07;9.83;;;2.10;99.90;;;;;;5117934;28;20170;-65
2023/01/23 00:53:49;;;;;;;15.30;11.27;;;2.10;99.90;;;;;;5115688;28;20180;-66
2023/01/23 00:56:14;;;;;;;12.83;9.97;;;2.10;99.90;;;;;;5115478;28;20182;-65
2023/01/23 00:58:40;;;;;;;12.07;9.13;;;2.10;99.90;;;;;;5115788;28;20176;-71
2023/01/23 01:01:07;;;;;;;13.17;9.37;;;1.90;99.90;;;;;;5115374;28;20189;-67
2023/01/23 01:03:34;;;;;;;12.03;8.70;;;1.80;99.90;;;;;;5115175;28;20195;-63
2023/01/23 01:06:00;;;;;;;12.97;8.90;;;1.70;99.90;;;;;;5115406;28;20179;-65
2023/01/23 01:08:26;;;;;;;10.60;8.00;;;1.60;99.90;;;;;;5115211;28;20177;-68
2023/01/23 01:10:51;;;;;;;12.40;8.60;;;1.60;99.90;;;;;;5115272;28;20230;-64
2023/01/23 01:13:20;;;;;;;11.63;8.67;;;1.60;99.90;;;;;;5115065;28;20183;-66
2023/01/23 01:15:48;;;;;;;12.90;8.83;;;1.70;99.90;;;;;;5114660;28;20632;-72
2023/01/23 01:18:14;;;;;;;14.03;8.33;;;1.70;99.90;;;;;;5096909;28;20261;-68
2023/01/23 01:20:41;;;;;;;12.13;8.33;;;1.70;99.90;;;;;;5115057;28;20169;-65
2023/01/23 01:23:07;;;;;;;10.40;8.20;;;1.70;99.90;;;;;;5096708;28;20206;-64
2023/01/23 01:25:33;;;;;;;10.17;7.93;;;1.60;99.90;;;;;;5115053;28;20175;-66
2023/01/23 01:27:59;;;;;;;11.87;8.63;;;1.50;99.90;;;;;;5114967;28;20184;-70
2023/01/23 01:30:29;;;;;;;11.00;8.33;;;1.50;99.90;;;;;;5114961;28;20176;-73
2023/01/23 01:32:55;;;;;;;10.87;8.20;;;1.50;99.90;;;;;;5114868;28;20183;-69
2023/01/23 01:35:22;;;;;;;10.27;8.17;;;1.60;99.90;;;;;;5114765;28;20186;-70
2023/01/23 01:37:48;;;;;;;9.60;7.43;;;1.60;99.90;;;;;;5114732;28;20176;-67
2023/01/23 01:40:20;;;;;;;9.27;6.40;;;1.60;99.90;;;;;;5115469;28;20187;-71
2023/01/23 01:42:56;;;;;;;5.67;5.00;;;1.60;99.90;;;;;;5117086;28;20227;-64
2023/01/23 01:45:59;;;;;;;5.90;4.83;;;1.70;99.90;;;;;;5117133;28;20621;-64
2023/01/23 01:48:48;;;;;;;6.03;4.60;;;1.80;99.90;;;;;;5114544;28;20260;-64
2023/01/23 01:51:32;;;;;;;4.30;3.93;;;1.80;99.90;;;;;;5114407;28;20172;-65
2023/01/23 01:54:05;;;;;;;4.37;3.97;;;1.90;99.90;;;;;;5114405;28;20535;-64
2023/01/23 01:56:40;;;;;;;3.77;3.30;;;1.80;99.90;;;;;;5096016;28;20172;-66
2023/01/23 01:59:06;;;;;;;3.87;3.47;;;1.80;99.90;;;;;;5114308;28;20165;-65
2023/01/23 02:01:33;;;;;;;3.40;3.10;;;1.80;99.90;;;;;;5112110;28;20184;-70
2023/01/23 02:04:00;;;;;;;3.67;3.37;;;1.90;99.90;;;;;;5113352;28;20556;-69
2023/01/23 02:06:26;;;;;;;4.00;3.70;;;2.00;99.90;;;;;;5113915;28;20163;-70
2023/01/23 02:09:11;;;;;;;4.47;4.07;;;2.10;99.90;;;;;;5113817;28;20212;-70
2023/01/23 02:11:37;;;;;;;5.03;4.53;;;2.10;99.90;;;;;;5113415;28;20168;-73
2023/01/23 02:14:03;;;;;;;4.53;4.23;;;2.20;99.90;;;;;;5113711;28;20183;-65
2023/01/23 02:16:38;;;;;;;4.73;4.17;;;2.30;99.90;;;;;;5113944;28;20260;-65
2023/01/23 02:19:13;;;;;;;5.20;4.70;;;2.30;99.90;;;;;;5113426;28;20182;-65
2023/01/23 02:21:40;;;;;;;5.23;4.73;;;2.30;99.90;;;;;;5114092;28;20175;-67
2023/01/23 02:24:38;;;;;;;5.93;5.33;;;2.50;99.90;;;;;;5113466;28;20269;-64
2023/01/23 02:27:04;;;;;;;5.67;4.97;;;2.40;99.90;;;;;;5032622;28;20706;-63
2023/01/23 02:29:41;;;;;;;7.03;4.83;;;2.40;99.90;;;;;;5031086;28;20202;-69
2023/01/23 02:32:06;;;;;;;6.07;5.47;;;2.40;99.90;;;;;;5030500;28;20185;-64
2023/01/23 02:34:32;;;;;;;5.57;5.07;;;2.40;99.90;;;;;;5030636;28;20267;-62
2023/01/23 02:36:59;;;;;;;5.47;4.97;;;2.40;99.90;;;;;;5030664;28;20180;-64
2023/01/23 02:39:26;;;;;;;5.17;4.67;;;2.40;99.90;;;;;;5013995;28;20659;-67
2023/01/23 02:41:53;;;;;;;5.67;4.80;;;2.30;99.90;;;;;;5030352;28;20191;-66
2023/01/23 02:44:28;;;;;;;6.00;4.67;;;2.40;99.90;;;;;;5010219;28;20567;-62
2023/01/23 02:47:03;;;;;;;5.03;4.57;;;2.40;99.90;;;;;;5010463;28;20174;-65
2023/01/23 02:49:29;;;;;;;6.23;4.87;;;2.30;99.90;;;;;;5010213;28;20222;-67
2023/01/23 02:51:56;;;;;;;4.90;4.50;;;2.30;99.90;;;;;;5010521;28;20259;-67
2023/01/23 02:54:22;;;;;;;6.87;4.80;;;2.40;99.90;;;;;;5010548;28;20218;-62
2023/01/23 02:56:48;;;;;;;5.23;4.73;;;2.40;99.90;;;;;;5010509;28;20181;-63
2023/01/23 03:01:59;;;;;;;4.87;4.47;;;2.40;99.90;;;;;;5024018;28;20190;-71
2023/01/23 03:04:25;;;;;;;4.40;4.00;;;2.40;99.90;;;;;;5070836;28;20222;-64
2023/01/23 03:06:51;;;;;;;6.63;4.80;;;2.50;99.90;;;;;;5070924;28;20167;-67
2023/01/23 03:09:18;;;;;;;4.97;4.47;;;2.50;99.90;;;;;;5071076;28;20434;-67
2023/01/23 03:11:45;;;;;;;5.23;4.73;;;2.50;99.90;;;;;;5072156;28;20178;-73
2023/01/23 03:14:16;;;;;;;4.87;4.30;;;2.40;99.90;;;;;;5072384;28;20174;-66
2023/01/23 03:16:45;;;;;;;4.20;3.90;;;2.50;99.90;;;;;;5070983;28;20179;-64
2023/01/23 03:19:11;;;;;;;5.57;4.10;;;2.50;99.90;;;;;;5072330;28;20195;-68
2023/01/23 03:21:39;;;;;;;5.00;4.43;;;2.40;99.90;;;;;;5072106;28;20251;-66
2023/01/23 03:24:10;;;;;;;4.50;4.10;;;2.40;99.90;;;;;;5071987;28;20212;-70
2023/01/23 03:26:41;;;;;;;5.03;4.30;;;2.20;99.90;;;;;;5072148;28;20171;-64
2023/01/23 03:31:57;;;;;;;4.60;4.20;;;2.30;99.90;;;;;;5072250;28;20162;-65
2023/01/23 03:34:23;;;;;;;4.87;4.40;;;2.30;99.90;;;;;;5072061;28;20170;-65
2023/01/23 03:36:48;;;;;;;4.40;4.10;;;2.40;99.90;;;;;;5071964;28;20910;-64
2023/01/23 03:41:58;;;;;;;5.20;4.23;;;2.30;99.90;;;;;;5071717;28;20170;-65
2023/01/23 03:44:24;;;;;;;4.87;4.47;;;2.40;99.90;;;;;;5110020;28;20237;-65
2023/01/23 03:46:51;;;;;;;4.23;3.83;;;2.40;99.90;;;;;;5112341;28;20181;-68
2023/01/23 03:49:17;;;;;;;4.23;3.93;;;2.40;99.90;;;;;;5112275;28;20225;-65
2023/01/23 03:51:43;;;;;;;3.97;3.67;;;2.40;99.90;;;;;;5112185;28;20273;-65
2023/01/23 03:54:10;;;;;;;4.37;3.97;;;2.30;99.90;;;;;;5112224;28;20688;-66
2023/01/23 03:56:36;;;;;;;4.60;4.20;;;2.30;99.90;;;;;;5093967;28;20183;-67
2023/01/23 03:59:02;;;;;;;4.40;4.03;;;2.30;99.90;;;;;;5112243;28;20163;-65
2023/01/23 04:01:28;;;;;;;5.53;4.47;;;2.30;99.90;;;;;;5111997;28;20180;-68
2023/01/23 04:03:54;;;;;;;4.50;4.10;;;2.30;99.90;;;;;;5112212;28;20219;-63
2023/01/23 04:06:20;;;;;;;4.00;3.70;;;2.20;99.90;;;;;;5112344;28;20676;-68
2023/01/23 04:08:45;;;;;;;4.30;4.00;;;2.10;99.90;;;;;;5092925;28;20185;-65
2023/01/23 04:11:11;;;;;;;4.73;4.30;;;1.90;99.90;;;;;;5111953;28;20173;-65
2023/01/23 04:13:37;;;;;;;4.63;4.17;;;1.80;99.90;;;;;;5112071;28;20267;-68
2023/01/23 04:16:04;;;;;;;6.33;4.10;;;1.80;99.90;;;;;;5112463;28;20249;-63
2023/01/23 04:18:30;;;;;;;4.20;3.83;;;1.80;99.90;;;;;;5113964;28;20231;-63
2023/01/23 04:20:56;;;;;;;4.00;3.70;;;1.80;99.90;;;;;;5097950;28;20184;-66
2023/01/23 04:23:22;;;;;;;4.17;3.77;;;1.90;99.90;;;;;;5112098;28;20223;-62
2023/01/23 04:25:48;;;;;;;4.33;3.93;;;1.90;99.90;;;;;;5114018;28;20183;-70
2023/01/23 04:28:14;;;;;;;4.07;3.77;;;1.90;99.90;;;;;;5113203;28;20173;-70
2023/01/23 04:30:40;;;;;;;4.23;3.83;;;2.00;99.90;;;;;;5112378;28;20168;-68
2023/01/23 04:33:06;;;;;;;3.53;3.23;;;2.00;99.90;;;;;;5107588;28;20651;-72
2023/01/23 04:35:32;;;;;;;3.80;3.50;;;2.00;99.90;;;;;;5111838;28;20640;-65
2023/01/23 04:37:58;;;;;;;4.40;3.17;;;2.00;99.90;;;;;;5112367;28;20178;-64
2023/01/23 04:40:24;;;;;;;3.87;3.50;;;2.00;99.90;;;;;;5112378;28;20162;-65
2023/01/23 04:42:49;;;;;;;3.67;3.20;;;2.10;99.90;;;;;;5111985;28;20218;-63
2023/01/23 04:45:15;;;;;;;3.33;3.03;;;2.20;99.90;;;;;;5112220;28;20593;-63
2023/01/23 04:47:41;;;;;;;3.03;2.77;;;2.20;99.90;;;;;;5112280;28;20173;-63
2023/01/23 04:50:07;;;;;;;4.00;3.60;;;2.20;99.90;;;;;;5112161;28;20171;-70
2023/01/23 04:52:33;;;;;;;3.97;3.27;;;2.20;99.90;;;;;;5115618;28;20173;-68
2023/01/23 04:54:58;;;;;;;4.33;3.50;;;2.40;99.90;;;;;;5115623;28;20218;-70
2023/01/23 04:57:25;;;;;;;3.83;3.43;;;2.40;99.90;;;;;;5115503;28;20209;-70
2023/01/23 04:59:50;;;;;;;3.47;3.17;;;2.50;99.90;;;;;;5115564;28;20162;-73
2023/01/23 05:02:16;;;;;;;4.03;3.37;;;2.50;99.90;;;;;;5115386;28;20658;-66
2023/01/23 05:04:42;;;;;;;3.70;3.40;;;2.50;99.90;;;;;;5115402;28;20288;-65
2023/01/23 05:07:10;;;;;;;3.87;3.57;;;2.60;99.90;;;;;;5115248;28;20256;-67
2023/01/23 05:09:37;;;;;;;8.43;5.83;;;2.60;99.90;;;;;;5115165;28;20679;-68
2023/01/23 05:12:04;;;;;;;4.93;4.23;;;2.60;99.90;;;;;;5115345;28;20169;-66
2023/01/23 05:14:29;;;;;;;3.93;3.53;;;2.50;99.90;;;;;;5115128;28;20184;-68
2023/01/23 05:16:55;;;;;;;13.93;7.20;;;2.50;99.90;;;;;;5115170;28;20187;-67
2023/01/23 05:19:21;;;;;;;12.93;7.37;;;2.60;99.90;;;;;;5115183;28;20175;-66
2023/01/23 05:21:47;;;;;;;12.07;6.53;;;2.60;99.90;;;;;;5115082;28;20631;-65
2023/01/23 05:24:13;;;;;;;26.20;13.47;;;2.60;99.90;;;;;;5114804;28;20687;-69
2023/01/23 05:26:38;;;;;;;14.57;8.57;;;2.70;99.90;;;;;;5114987;28;20178;-66
2023/01/23 05:29:04;;;;;;;9.93;6.27;;;2.70;99.90;;;;;;5114963;28;20183;-66
2023/01/23 05:31:30;;;;;;;6.73;5.20;;;2.70;99.90;;;;;;5114978;28;20177;-70
2023/01/23 05:33:56;;;;;;;6.50;4.67;;;2.80;99.90;;;;;;5114809;28;20190;-67
2023/01/23 05:36:22;;;;;;;4.50;3.80;;;2.80;99.90;;;;;;5114862;28;20181;-69
2023/01/23 05:38:47;;;;;;;4.57;4.00;;;2.80;99.90;;;;;;5114699;28;20624;-65
2023/01/23 05:41:13;;;;;;;5.07;4.07;;;2.80;99.90;;;;;;5114759;28;20621;-66
2023/01/23 05:43:39;;;;;;;4.03;3.73;;;2.80;99.90;;;;;;5096376;28;20235;-71
2023/01/23 05:46:05;;;;;;;4.67;3.27;;;2.80;99.90;;;;;;5114469;28;20274;-69
2023/01/23 05:48:31;;;;;;;4.23;3.77;;;2.80;99.90;;;;;;5095784;28;20186;-68
2023/01/23 05:50:56;;;;;;;3.70;3.40;;;2.80;99.90;;;;;;5114421;28;20206;-72
2023/01/23 05:53:23;;;;;;;6.23;3.73;;;2.90;99.90;;;;;;5114417;28;20230;-72
2023/01/23 05:55:49;;;;;;;4.13;3.50;;;2.90;99.90;;;;;;5096014;28;20730;-67
2023/01/23 05:58:14;;;;;;;5.30;3.20;;;3.00;99.90;;;;;;5114403;28;20264;-68
2023/01/23 06:00:40;;;;;;;3.40;3.20;;;3.10;99.90;;;;;;5114613;28;20265;-67
2023/01/23 06:03:06;;;;;;;3.43;3.10;;;3.20;99.90;;;;;;5114136;28;20219;-65
2023/01/23 06:05:31;;;;;;;2.97;2.77;;;3.30;99.90;;;;;;5114363;28;20219;-64
2023/01/23 06:07:57;;;;;;;3.27;3.00;;;3.30;99.90;;;;;;5114338;28;20611;-67
2023/01/23 06:10:23;;;;;;;2.83;2.63;;;3.40;99.90;;;;;;5115846;28;20533;-66
2023/01/23 06:12:49;;;;;;;3.00;2.80;;;3.50;99.90;;;;;;5115536;28;20173;-70
2023/01/23 06:15:14;;;;;;;3.20;2.90;;;3.60;99.90;;;;;;5095820;28;20938;-70
2023/01/23 06:17:40;;;;;;;3.10;2.90;;;3.60;99.90;;;;;;5113968;28;20628;-70
2023/01/23 06:20:07;;;;;;;3.00;2.80;;;3.60;99.90;;;;;;5113962;28;20177;-67
2023/01/23 06:22:32;;;;;;;3.00;2.80;;;3.70;99.90;;;;;;5113690;28;20199;-66
2023/01/23 06:24:58;;;;;;;2.83;2.60;;;3.60;99.90;;;;;;5113871;28;20581;-64
2023/01/23 06:27:24;;;;;;;3.00;2.80;;;3.70;99.90;;;;;;5114002;28;20196;-64
2023/01/23 06:29:50;;;;;;;2.90;2.60;;;3.70;99.90;;;;;;5114060;28;20170;-69
2023/01/23 06:32:15;;;;;;;4.13;2.50;;;3.80;99.90;;;;;;5113695;28;20196;-65
2023/01/23 06:34:41;;;;;;;3.23;2.93;;;3.70;99.90;;;;;;5113748;28;20509;-64
2023/01/23 06:37:07;;;;;;;4.10;3.70;;;3.80;99.90;;;;;;5113621;28;20184;-68
2023/01/23 06:39:33;;;;;;;3.97;3.60;;;3.80;99.90;;;;;;5113904;28;20170;-65
2023/01/23 06:41:59;;;;;;;4.20;3.80;;;3.80;99.90;;;;;;5113302;28;20250;-64
2023/01/23 06:44:25;;;;;;;8.30;4.00;;;3.80;99.90;;;;;;5113312;28;20227;-64
2023/01/23 06:46:52;;;;;;;5.20;4.60;;;3.80;99.90;;;;;;5113578;28;20261;-64
2023/01/23 06:49:18;;;;;;;4.73;4.33;;;3.80;99.90;;;;;;5095104;28;20173;-65
2023/01/23 06:51:44;;;;;;;5.57;5.00;;;3.80;99.90;;;;;;5113329;28;20170;-67
2023/01/23 06:54:09;;;;;;;6.97;5.20;;;3.70;99.90;;;;;;5095342;28;20199;-64
2023/01/23 06:56:35;;;;;;;7.23;5.57;;;3.70;99.90;;;;;;5113282;28;20632;-63
2023/01/23 06:59:01;;;;;;;6.00;5.30;;;3.70;99.90;;;;;;5095029;28;20269;-63
2023/01/23 07:01:27;;;;;;;8.33;6.67;;;3.60;99.90;;;;;;5113043;28;20176;-65
2023/01/23 07:03:53;;;;;;;7.63;6.43;;;3.50;99.90;;;;;;5113006;28;20757;-65
2023/01/23 07:06:19;;;;;;;6.97;6.10;;;3.60;99.90;;;;;;5113112;28;20173;-65
2023/01/23 07:08:45;;;;;;;9.13;6.47;;;3.60;99.90;;;;;;5113470;28;20183;-63
2023/01/23 07:11:11;;;;;;;8.90;6.67;;;3.50;99.90;;;;;;5094627;28;20177;-68
2023/01/23 07:13:37;;;;;;;9.10;7.70;;;3.40;99.90;;;;;;5112933;28;20180;-65
2023/01/23 07:16:03;;;;;;;13.20;8.23;;;3.40;99.90;;;;;;5113266;28;20173;-70
2023/01/23 07:18:29;;;;;;;15.73;9.27;;;3.40;99.90;;;;;;5113825;28;20176;-66
2023/01/23 07:20:55;;;;;;;13.93;8.80;;;3.40;99.90;;;;;;5116757;28;20183;-67
2023/01/23 07:23:21;;;;;;;12.90;8.63;;;3.30;99.90;;;;;;5116427;28;20219;-67
2023/01/23 07:25:47;;;;;;;11.63;8.60;;;3.30;99.90;;;;;;5113133;28;20176;-68
2023/01/23 07:28:13;;;;;;;12.37;8.27;;;3.30;99.90;;;;;;5112893;28;20256;-65
2023/01/23 07:30:38;;;;;;;11.00;8.10;;;3.30;99.90;;;;;;5112671;28;20177;-68
2023/01/23 07:33:05;;;;;;;10.90;7.27;;;3.40;99.90;;;;;;5112594;28;20545;-73
2023/01/23 07:35:31;;;;;;;12.80;8.17;;;3.40;99.90;;;;;;5112959;28;20178;-70
2023/01/23 07:37:57;;;;;;;11.70;7.77;;;3.50;99.90;;;;;;5112638;28;20176;-71
2023/01/23 07:40:23;;;;;;;11.90;7.93;;;3.50;99.90;;;;;;5112707;28;20185;-64
2023/01/23 07:42:49;;;;;;;13.90;7.87;;;3.60;99.90;;;;;;5112216;28;20232;-67
2023/01/23 07:45:15;;;;;;;12.03;8.80;;;3.60;99.90;;;;;;5112576;28;20540;-68
2023/01/23 07:47:40;;;;;;;13.20;7.73;;;3.70;99.90;;;;;;5094336;28;20169;-68
2023/01/23 07:50:12;;;;;;;10.43;7.47;;;3.90;99.90;;;;;;5112249;28;20585;-71
2023/01/23 07:52:39;;;;;;;12.57;9.43;;;3.90;99.90;;;;;;5112079;28;20562;-70
2023/01/23 07:55:05;;;;;;;16.13;9.57;;;4.00;99.90;;;;;;5112068;28;20232;-73
2023/01/23 07:57:32;;;;;;;14.70;9.33;;;4.00;99.90;;;;;;5112418;28;20173;-71
2023/01/23 07:59:58;;;;;;;12.23;8.40;;;4.10;99.90;;;;;;5112807;28;20174;-70
2023/01/23 08:02:24;;;;;;;11.60;9.47;;;4.10;99.90;;;;;;5113140;28;20178;-70
2023/01/23 08:04:50;;;;;;;11.23;8.10;;;4.20;99.90;;;;;;5112031;28;20205;-68
2023/01/23 08:07:15;;;;;;;9.33;8.03;;;4.10;99.90;;;;;;5112134;28;20275;-70
2023/01/23 08:09:41;;;;;;;14.97;8.63;;;4.10;99.90;;;;;;5112068;28;20170;-66
2023/01/23 08:12:07;;;;;;;13.43;8.07;;;4.20;99.90;;;;;;5111697;28;20181;-64
2023/01/23 08:14:33;;;;;;;12.30;8.20;;;4.20;99.90;;;;;;5111847;28;20204;-67
2023/01/23 08:17:00;;;;;;;11.57;8.70;;;4.30;99.90;;;;;;5111833;28;20185;-67
2023/01/23 08:19:26;;;;;;;11.77;8.93;;;4.30;99.90;;;;;;5111988;28;20253;-67
2023/01/23 08:21:53;;;;;;;10.83;8.57;;;4.40;99.90;;;;;;5111682;28;20174;-65
2023/01/23 08:24:18;;;;;;;11.13;8.30;;;4.40;99.90;;;;;;5111658;28;20571;-68
2023/01/23 08:26:44;;;;;;;12.13;9.60;;;4.40;99.90;;;;;;5114903;28;20189;-67
2023/01/23 08:29:10;;;;;;;13.90;9.17;;;4.30;99.90;;;;;;5116480;28;20205;-64
2023/01/23 08:31:37;;;;;;;11.70;8.93;;;4.30;99.90;;;;;;5116256;28;20695;-66
2023/01/23 08:34:03;;;;;;;11.83;9.27;;;4.20;99.90;;;;;;5115643;28;20213;-64
2023/01/23 08:36:29;;;;;;;13.00;9.27;;;4.20;99.90;;;;;;5115790;28;20212;-64
2023/01/23 08:38:55;;;;;;;12.73;9.47;;;4.30;99.90;;;;;;5115731;28;20182;-66
2023/01/23 08:41:22;;;;;;;13.53;9.60;;;4.30;99.90;;;;;;5115504;28;20534;-68
2023/01/23 08:43:49;;;;;;;11.30;9.27;;;4.30;99.90;;;;;;5115122;28;20221;-68
2023/01/23 08:46:14;;;;;;;11.40;8.93;;;4.40;99.90;;;;;;5115799;28;20174;-64
2023/01/23 08:48:40;;;;;;;11.33;9.63;;;4.30;99.90;;;;;;5115401;28;20186;-73
2023/01/23 08:51:12;;;;;;;13.07;10.03;;;4.40;99.90;;;;;;5115274;28;20170;-70
2023/01/23 08:53:38;;;;;;;12.63;9.40;;;4.50;99.90;;;;;;5115599;28;20181;-70
2023/01/23 08:56:07;;;;;;;8.67;7.23;;;4.60;99.90;;;;;;5115318;28;20842;-71
2023/01/23 08:58:33;;;;;;;9.30;7.57;;;4.60;99.90;;;;;;5115500;28;20177;-69
2023/01/23 09:00:59;;;;;;;8.27;6.87;;;4.60;99.90;;;;;;5097254;28;20178;-71
2023/01/23 09:03:25;;;;;;;7.50;6.17;;;4.70;99.90;;;;;;5115237;28;20636;-71
2023/01/23 09:05:51;;;;;;;9.17;7.50;;;4.80;99.90;;;;;;5115326;28;20173;-73
2023/01/23 09:08:17;;;;;;;9.57;6.33;;;4.90;99.90;;;;;;5115095;28;20174;-66
2023/01/23 09:10:44;;;;;;;5.20;4.70;;;4.90;99.90;;;;;;5115130;28;20196;-64
2023/01/23 09:13:10;;;;;;;9.50;6.90;;;5.10;99.90;;;;;;5115001;28;20207;-65
2023/01/23 09:15:39;;;;;;;10.30;5.17;;;5.20;99.90;;;;;;5114987;28;20180;-66
2023/01/23 09:18:04;;;;;;;7.17;5.33;;;5.30;99.90;;;;;;5114905;28;20166;-67
2023/01/23 09:20:30;;;;;;;5.10;4.20;;;5.40;99.90;;;;;;5114842;28;20185;-70
2023/01/23 09:22:56;;;;;;;4.17;3.83;;;5.50;99.90;;;;;;5114680;28;20166;-75
2023/01/23 09:25:22;;;;;;;4.20;3.90;;;5.50;99.90;;;;;;5114781;28;20177;-71
2023/01/23 09:27:48;;;;;;;3.83;3.50;;;5.70;99.90;;;;;;5114723;28;20170;-73
2023/01/23 09:30:14;;;;;;;3.93;3.57;;;5.70;99.90;;;;;;5114569;28;20247;-70
2023/01/23 09:32:39;;;;;;;4.03;3.60;;;5.70;99.90;;;;;;5114412;28;20170;-71
2023/01/23 09:35:05;;;;;;;4.10;3.60;;;5.70;99.90;;;;;;5114467;28;20198;-72
2023/01/23 09:37:58;;;;;;;4.30;3.50;;;5.70;99.90;;;;;;5114044;28;20540;-69
2023/01/23 09:40:21;;;;;;;3.20;3.00;;;5.80;99.90;;;;;;5114355;28;20189;-72
2023/01/23 09:42:48;;;;;;;3.40;3.20;;;5.80;99.90;;;;;;5114085;28;20217;-72
2023/01/23 09:45:19;;;;;;;2.87;2.67;;;5.90;99.90;;;;;;5096560;28;20206;-67
2023/01/23 09:47:54;;;;;;;3.90;3.50;;;6.00;99.90;;;;;;5116226;28;20199;-66
2023/01/23 09:50:27;;;;;;;3.47;3.20;;;6.10;99.90;;;;;;5116082;28;20195;-64
2023/01/23 09:53:07;;;;;;;4.93;3.70;;;6.20;99.90;;;;;;5114392;28;20196;-64
2023/01/23 09:55:44;;;;;;;4.17;3.00;;;6.30;99.90;;;;;;5114478;28;20159;-68
2023/01/23 09:58:36;;;;;;;6.17;3.40;;;6.30;99.90;;;;;;5114537;28;20190;-67
2023/01/23 10:01:02;;;;;;;4.70;3.33;;;6.40;99.90;;;;;;5119846;27;20672;-66
2023/01/23 10:03:30;;;;;;;3.50;3.20;;;6.40;99.90;;;;;;5134596;27;20279;-67
2023/01/23 10:06:18;;;;;;;4.43;3.07;;;6.40;99.90;;;;;;5134883;27;20217;-66
2023/01/23 10:08:53;;;;;;;3.17;2.97;;;6.40;99.90;;;;;;5134708;27;20167;-65
2023/01/23 10:11:57;;;;;;;3.30;3.00;;;6.30;99.90;;;;;;5134498;27;20165;-66
2023/01/23 10:14:44;;;;;;;3.17;2.87;;;6.30;99.90;;;;;;5095002;27;20720;-69
2023/01/23 10:17:32;;;;;;;2.97;2.70;;;6.40;99.90;;;;;;5134501;27;20184;-66
2023/01/23 10:20:32;;;;;;;3.27;2.97;;;6.40;99.90;;;;;;5134389;27;20169;-68
2023/01/23 10:23:10;;;;;;;3.17;2.87;;;6.40;99.90;;;;;;5134088;27;20223;-67
2023/01/23 10:25:39;;;;;;;3.17;2.97;;;6.50;99.90;;;;;;5134247;27;20220;-69
2023/01/23 10:28:37;;;;;;;4.17;3.03;;;6.50;99.90;;;;;;5135161;27;20205;-66
2023/01/23 10:31:29;;;;;;;3.63;3.40;;;6.60;99.90;;;;;;5136128;27;20194;-73
2023/01/23 10:34:01;;;;;;;3.73;3.10;;;6.60;99.90;;;;;;5135141;27;20178;-69
2023/01/23 10:36:45;;;;;;;4.27;2.90;;;6.70;99.90;;;;;;5134548;27;20160;-69
2023/01/23 10:39:19;;;;;;;5.33;3.37;;;6.60;99.90;;;;;;5134443;27;20163;-72
2023/01/23 10:41:45;;;;;;;3.37;3.07;;;6.70;99.90;;;;;;5134334;27;20170;-67
2023/01/23 10:44:16;;;;;;;4.37;3.30;;;6.60;99.90;;;;;;5133691;27;20272;-66
2023/01/23 10:47:03;;;;;;;4.67;3.37;;;6.50;99.90;;;;;;5115821;27;20566;-72
2023/01/23 10:49:34;;;;;;;4.07;3.53;;;6.60;99.90;;;;;;5133102;27;20174;-65
2023/01/23 10:52:03;;;;;;;3.83;3.50;;;6.60;99.90;;;;;;5133564;27;20208;-69
2023/01/23 10:54:29;;;;;;;3.70;3.20;;;6.50;99.90;;;;;;5133623;27;20615;-67
2023/01/23 10:57:07;;;;;;;4.00;3.60;;;6.60;99.90;;;;;;5133603;27;20173;-64
2023/01/23 11:00:02;;;;;;;5.23;3.87;;;6.50;99.90;;;;;;5133616;27;20509;-67
2023/01/23 11:02:33;;;;;;;4.90;3.83;;;6.50;99.90;;;;;;5133431;27;20175;-66
2023/01/23 11:05:00;;;;;;;4.00;3.63;;;6.50;99.90;;;;;;5133541;27;20230;-71
2023/01/23 11:07:36;;;;;;;4.03;3.40;;;6.50;99.90;;;;;;5133399;27;20312;-66
2023/01/23 11:10:20;;;;;;;3.80;3.50;;;6.60;99.90;;;;;;5133643;27;20656;-65
2023/01/23 11:12:51;;;;;;;4.57;4.17;;;6.50;99.90;;;;;;5133575;27;20211;-65
2023/01/23 11:15:21;;;;;;;6.13;4.73;;;6.50;99.90;;;;;;5133452;27;20185;-65
2023/01/23 11:17:48;;;;;;;4.50;4.10;;;6.50;99.90;;;;;;5114913;27;20174;-66
2023/01/23 11:20:36;;;;;;;4.77;4.30;;;6.60;99.90;;;;;;5133300;27;20269;-67
2023/01/23 11:23:14;;;;;;;5.90;4.03;;;6.60;99.90;;;;;;5133208;27;20169;-67
2023/01/23 11:25:45;;;;;;;4.30;3.90;;;6.60;99.90;;;;;;5114911;27;20265;-72
2023/01/23 11:28:25;;;;;;;7.13;4.10;;;6.60;99.90;;;;;;5133446;27;20170;-64
2023/01/23 11:31:12;;;;;;;6.03;3.93;;;6.70;99.90;;;;;;5132795;27;20243;-66
2023/01/23 11:34:06;;;;;;;5.00;4.40;;;6.70;99.90;;;;;;5133047;27;20167;-69
2023/01/23 11:36:55;;;;;;;4.70;4.13;;;6.70;99.90;;;;;;5133180;27;20169;-68
2023/01/23 11:39:54;;;;;;;4.83;3.80;;;6.70;99.90;;;;;;5133748;27;20158;-69
2023/01/23 11:42:20;;;;;;;4.40;4.10;;;6.80;99.90;;;;;;5132816;27;20246;-69
2023/01/23 11:44:46;;;;;;;5.60;4.90;;;6.70;99.90;;;;;;5114468;27;20303;-64
2023/01/23 11:47:15;;;;;;;4.90;4.40;;;6.70;99.90;;;;;;5114451;28;20170;-65
2023/01/23 11:50:01;;;;;;;5.50;4.57;;;6.70;99.90;;;;;;5132971;28;20174;-65
2023/01/23 11:52:34;;;;;;;4.60;4.20;;;6.80;99.90;;;;;;5114433;28;20202;-66
2023/01/23 11:55:29;;;;;;;4.80;4.30;;;6.80;99.90;;;;;;5132972;28;20198;-68
2023/01/23 11:58:13;;;;;;;4.53;4.13;;;6.70;99.90;;;;;;5132923;28;20252;-65
2023/01/23 12:00:51;;;;;;;6.33;4.30;;;6.70;99.90;;;;;;5135319;27;20170;-67
2023/01/23 12:03:20;;;;;;;4.80;4.30;;;6.60;99.90;;;;;;5136387;27;20290;-64
2023/01/23 12:06:10;;;;;;;5.70;4.80;;;6.60;99.90;;;;;;5137153;27;20249;-64
2023/01/23 12:08:53;;;;;;;5.57;4.37;;;6.70;99.90;;;;;;5136919;27;20541;-70
2023/01/23 12:11:23;;;;;;;7.33;4.50;;;6.70;99.90;;;;;;5136860;27;20158;-67
2023/01/23 12:14:13;;;;;;;5.37;4.20;;;6.60;99.90;;;;;;5137161;27;20177;-65
2023/01/23 12:16:57;;;;;;;6.63;4.67;;;6.70;99.90;;;;;;5118677;27;20249;-65
2023/01/23 12:19:35;;;;;;;6.20;4.87;;;6.70;99.90;;;;;;5136714;27;20190;-69
2023/01/23 12:22:07;;;;;;;8.20;4.80;;;6.70;99.90;;;;;;5137101;27;20192;-67
2023/01/23 12:25:11;;;;;;;5.03;4.33;;;6.80;99.90;;;;;;5136632;27;20240;-68
2023/01/23 12:27:45;;;;;;;4.90;4.40;;;6.70;99.90;;;;;;5033154;28;20181;-71
2023/01/23 12:30:43;;;;;;;6.43;4.97;;;6.70;99.90;;;;;;5036337;28;20554;-74
2023/01/23 12:33:40;;;;;;;5.00;4.47;;;6.70;99.90;;;;;;5006066;28;20190;-74
2023/01/23 12:36:17;;;;;;;5.37;4.97;;;6.70;99.90;;;;;;5033223;28;21003;-74
2023/01/23 12:38:58;;;;;;;12.97;6.40;;;6.80;99.90;;;;;;5033101;28;20166;-64
2023/01/23 12:41:50;;;;;;;9.10;6.77;;;6.90;99.90;;;;;;5032771;28;20195;-67
2023/01/23 12:44:23;;;;;;;8.90;6.57;;;6.90;99.90;;;;;;5015907;28;20237;-64
2023/01/23 12:47:05;;;;;;;9.17;7.20;;;6.80;99.90;;;;;;5032751;28;20171;-65
2023/01/23 12:49:47;;;;;;;9.67;6.77;;;6.70;99.90;;;;;;5032653;28;20219;-63
2023/01/23 12:52:40;;;;;;;10.90;6.40;;;6.70;99.90;;;;;;5032555;28;20171;-65
2023/01/23 12:56:03;;;;;;;8.93;6.50;;;6.60;99.90;;;;;;5032493;28;20214;-64
2023/01/23 12:58:35;;;;;;;8.47;6.10;;;6.60;99.90;;;;;;4954223;29;20172;-66
2023/01/23 13:01:09;;;;;;;8.17;6.57;;;6.50;99.90;;;;;;4959548;28;20189;-65
2023/01/23 13:03:59;;;;;;;8.30;6.47;;;6.50;99.90;;;;;;5103920;27;20220;-65
2023/01/23 13:06:34;;;;;;;10.13;6.03;;;6.40;99.90;;;;;;5135880;27;20169;-74
2023/01/23 13:09:31;;;;;;;6.97;5.60;;;6.30;99.90;;;;;;5136003;27;20185;-75
2023/01/23 13:12:20;;;;;;;6.73;5.90;;;6.30;99.90;;;;;;5135524;27;20175;-66
2023/01/23 13:14:47;;;;;;;9.90;6.33;;;6.30;99.90;;;;;;5137548;27;20171;-70
2023/01/23 13:17:51;;;;;;;6.93;5.93;;;6.30;99.90;;;;;;5136080;27;20624;-68